Archived

This topic is now archived and is closed to further replies.

DaedalusX

ActiveSky; lot's of problem, crash, wx do not update, etc

Recommended Posts

So I installed Active Sky Evolution with the SP3 today. I used the settings from PMDG'S forum for fsx, fsuicp and ActiveSky: http://forum.avsim.n...t-with-the-ngx/ I'm running the latest FSUIPC registered. I do not have an antivirus/firewall. My system is a core i5 @ 3.4ghz. 4gb ram with the correct timing. Windows 7 x64. FSX is installed in D:\FSX and ASE is installed in D:\ASE it'S a fresh install too. I'm plugged on ethernet cable with a very fast 20mbit connection. I start FSX with the FPSlimiter then launch ActiveSky. I've also tried starting activesky first and I ran in the same issues: - It does update the winds correctly, but it does not set the correct clouds and visibility (visibility was a 1nm OVC 1000 in the metar and it was at 20nm in FSX and no clounds)- 75% of the time it'll simply crash 1-2 minute after start up.- When it does have the correct weather at departure, it doesn't update the arrival with the correct weather. Maybe it doesn't like hurricane ? ASE_SimConnectionLog.txt 3:54:02 PM:0050 - Pre Connect FS_Connected = False3:54:02 PM:0157 - FSX Connect Pre Attempt: Instantiated = False / mConnected = False3:54:02 PM:0406 - Sim general message:Sim Msg: fsx_simconnect is NOTHING ...3:54:02 PM:0601 - Sim general message:Sim Msg: Connection request sent ...3:54:02 PM:0628 - Sim general message:SimConnect Msg: Data request sent ...3:54:02 PM:0629 - FSX Connect Post Attempt: Instantiated = True / mConnected = False3:54:02 PM:0629 - FSX Connection Attempted3:54:02 PM:0629 - Post Connect FS_Connected = False3:54:02 PM:0894 - Sim general message:Sim Msg: Connected to FS ASE_Log.txt 3:53:48 PM:0781 - Loading Application Data Path3:53:48 PM:0782 - Application Data Path = C:\Users\Administrator\AppData\Roaming\HiFi\ASE3:53:48 PM:0782 - Loading Application Executable Path3:53:48 PM:0782 - Application Executable Path = D:\ASE3:53:48 PM:0782 - ASE load commencing...3:53:48 PM:0783 - Verifying Active Sky Evolution License3:53:48 PM:0944 - FSX Path Value = D:\FSX\3:53:48 PM:0947 - FSX My AppData Path Value = C:\Users\Administrator\AppData\Roaming\Microsoft\FSX\3:53:49 PM:0001 - FSX My Docs Path Value = C:\Users\Administrator\Documents\Flight Simulator X Files\3:53:49 PM:0081 - ASE settings have been loaded...3:53:49 PM:0607 - Initializing ASE3:53:59 PM:0832 - FS station database update not needed (unchanged)...3:53:59 PM:0853 - World Magnetic Model has been loaded...3:54:00 PM:0314 - Wx Station Database loaded: 9960 station(s)3:54:00 PM:0515 - Airports Database loaded...3:54:00 PM:0515 - Loading Additional Weather Stations...3:54:00 PM:0639 - Additional stations database load compete for 1704 stations3:54:00 PM:0696 - SimConnect found and initialized3:54:02 PM:0012 - ASE controls initialized...3:54:02 PM:0013 - ASE v12.0.0.647 Copyright © 2010 HiFi Technologies, Inc., all rights reserved.3:54:02 PM:0013 - ASE Module has been loaded3:54:02 PM:0014 - Main Background Wx Engine process has been started3:54:02 PM:0014 - Sim Interface queue process has been started3:54:02 PM:0015 - Online automatic download thread has been started3:54:02 PM:0015 - Random element generation thread has been started3:54:02 PM:0016 - Voice playback thread has been started3:54:02 PM:0016 - Virtual station generation thread has been started3:54:02 PM:0016 - Wake sample and synthesis thread has been started3:54:02 PM:0107 - 3 voice sets activated...3:54:02 PM:0232 - Imagery processing thread started3:54:02 PM:0256 - Thermal Data Loaded: 5 items3:54:02 PM:0303 - SimConnect SP2 instantiated!3:54:02 PM:0895 - FSX connection established!3:54:02 PM:0896 - Set Mode Global3:54:08 PM:0082 - Downloading global weather data for 9/16/2011 7:54:08 PM (19Z) from Primary Server...3:54:11 PM:0196 - Generated Machine Code .....3:54:18 PM:0413 - Start Download Content License Result Check3:54:18 PM:0413 - Finished Download Content License Result Check in 0 ms3:54:18 PM:0446 - Start Download File Output3:54:18 PM:0446 - Saving weather to disk3:54:18 PM:0446 - Finished Download File Output in 1.0001 ms3:54:18 PM:0446 - Start Decrypt/Decompress3:54:23 PM:0367 - Finished Decrypt/Decompress in 4921.2814 ms3:54:23 PM:0367 - Download Binary Compress File Routine completed in 12114.6929 ms3:54:23 PM:0368 - Populating weather stream with new data...3:54:23 PM:0371 - Parsing line items3:54:24 PM:0384 - 8369 stations were scanned (374 did not provide recent data)3:54:24 PM:0384 - Download complete3:54:24 PM:0389 - Downloading Met/Rep data from Primary Server...3:54:24 PM:0403 - Sent FS Message: ASE new weather download completed...3:54:31 PM:0698 - Met/Rep Data Received...3:54:31 PM:0746 - Met/Rep Download complete3:54:32 PM:0346 - Weather synthesis thread has been started3:54:43 PM:0376 - Synthesis updated...3:54:43 PM:0576 - Weather injection thread has been started3:54:43 PM:0576 - VAS and thermal generation thread has been started3:54:43 PM:0576 - Data output thread has been started3:54:43 PM:0577 - Effects simulation thread has been started3:54:43 PM:0583 - Clear FS weather sent to queue...3:54:43 PM:0702 - Station data export completed3:54:43 PM:0702 - **** ASE Initial Weather Synthesis Complete! ****3:54:43 PM:0703 - Starting depiction output to FSX3:54:43 PM:0708 - New Hurricane Data found...3:54:43 PM:0709 - Fine tuning weather synthesis...3:54:43 PM:0840 - Clearing Wx for FSX3:54:43 PM:0929 - Sent String: LFVP 161900Z 29030G40KT 9999 BKN011 BKN026 15/13 Q0997 NOSIG3:54:43 PM:0973 - Sending Seconds Zero Write...3:54:44 PM:0024 - Sent String: LFVP 161900Z 29030G40KT 9999 BKN011 BKN026 15/13 Q0997 NOSIG3:54:44 PM:0024 - Sending Seconds Zero Write...3:54:44 PM:0042 - Set Mode Global3:54:44 PM:0070 - Sent String: LFVP 161900Z 29030G40KT 9999 BKN011 BKN026 15/13 Q0997 NOSIG3:54:44 PM:0070 - Sending Seconds Zero Write...3:54:44 PM:0243 - Set dynamic rate: 53:54:44 PM:0450 - Sent Weather: LFVP3:54:44 PM:0651 - Sent Weather: LFVP3:54:44 PM:0851 - Sent Weather: LFVP3:54:48 PM:0129 - Sent String: LFVP 161900Z 29030G40KT 9999 BKN011 BKN026 15/13 Q0997 NOSIG3:54:48 PM:0131 - ASE initial weather depiction complete!3:54:48 PM:0131 - Re-enforcing initial depiction...3:54:48 PM:0131 - Beginning constant DWC depiction updates...3:54:48 PM:0352 - Set Mode Global3:54:48 PM:0552 - Sent Weather: LFVP3:54:48 PM:0752 - Sent FS Message: ASE initial weather depiction complete!3:54:48 PM:0952 - Sent FS Message: ASE beginning constant DWC depiction updates...3:54:52 PM:0175 - Sent String: LFVP 161900Z 29030G40KT 9999 BKN011 BKN026 15/13 Q0997 NOSIG3:54:52 PM:0462 - Sent Weather: LFVP3:54:53 PM:0585 - Thermal generated: 1592fpm, Temp = 14.711543:54:56 PM:0221 - Sent String: LFVP 161900Z 29030G40KT 9999 BKN011 BKN026 15/13 Q0997 NOSIG3:54:56 PM:0471 - Sent Weather: LFVP3:55:00 PM:0267 - Sent String: LFVP 161900Z 29030G40KT 9999 BKN011 BKN026 15/13 Q0997 NOSIG3:55:00 PM:0272 - Sent Weather: LFVP3:55:04 PM:0314 - Sent String: 5S01 161500Z VRB65KT 185V355 1SM OVC010 OVC120 OVC220 +RA 20/20 Q0983 RMK MARIA LOC 044.600 -056.300 MAX SPEED 0653:55:04 PM:0376 - Sent Weather: 5S013:55:05 PM:0788 - Added station to FSX: 92073:55:05 PM:0989 - Added station to FSX: 92123:55:06 PM:0097 - Synthesis updated...3:55:06 PM:0191 - Added station to FSX: 92153:55:06 PM:0391 - Added station to FSX: 92273:55:06 PM:0591 - Added station to FSX: 92343:55:06 PM:0791 - Added station to FSX: 92353:55:06 PM:0991 - Added station to FSX: 92493:55:07 PM:0191 - Added station to FSX: 92503:55:07 PM:0691 - Added station to FSX: 20013:55:07 PM:0891 - Added station to FSX: 20023:55:08 PM:0091 - Added station to FSX: 41003:55:08 PM:0291 - Added station to FSX: 41013:55:08 PM:0360 - Sent String: 5S01 161500Z VRB65KT 185V355 1SM OVC010 OVC120 OVC220 +RA 20/20 Q0983 RMK MARIA LOC 044.600 -056.300 MAX SPEED 0653:55:08 PM:0406 - Sent String: 5S01 161500Z VRB65KT 185V355 1SM OVC010 OVC120 OVC220 +RA 20/20 Q0983 RMK MARIA LOC 044.600 -056.300 MAX SPEED 0653:55:08 PM:0406 - Sending Seconds Zero Write...3:55:08 PM:0491 - Sent Weather: 5S013:55:08 PM:0691 - Added station to FSX: 41023:55:08 PM:0891 - Added station to FSX: 41033:55:09 PM:0091 - Added station to FSX: 41043:55:09 PM:0291 - Added station to FSX: 41053:55:09 PM:0491 - Added station to FSX: 41063:55:09 PM:0691 - Added station to FSX: 41073:55:09 PM:0891 - Added station to FSX: 41083:55:10 PM:0091 - Added station to FSX: 41093:55:10 PM:0291 - Added station to FSX: 410A3:55:10 PM:0491 - Added station to FSX: 410B3:55:10 PM:0691 - Added station to FSX: 410C3:55:10 PM:0891 - Added station to FSX: 410D3:55:11 PM:0091 - Added station to FSX: 410E3:55:11 PM:0291 - Added station to FSX: 410F3:55:11 PM:0491 - Added station to FSX: 41103:55:11 PM:0691 - Added station to FSX: 41113:55:11 PM:0891 - Added station to FSX: 4112

Share this post


Link to post
Share on other sites
Help AVSIM continue to serve you!
Please donate today!

Hi, Your Simconnect is unstable on your FSX machine. This is hard to repair, but you can use the 3 FSX SDKs to just reinstall SimConnect. SDK1 is on DVD1. Then SDK1a and SDK2 can be downloaded from Microsoft. You install the SDKs one at a time and run the SimConnect.msi installer. Then try ASE starting ASE first each time. Then let us know.

Share this post


Link to post
Share on other sites

I reinstalled the SDKs and simconnect.msi I went for a spin on a small piston twin and it seemed to worked but this morning I tried a NGX flight from Gander (CYQX) to Michelon (LVFP). To check if the hurricane date was working and it worked for the first 15mins of the flight and then totally messed up on the approach, again the winds were correct but it was clear sky and PS20NM+ visibility instead of the metar data. Here's a screenshot and I've attached my log files also. This is getting old because I have countless addons that are working flawlessly, my FSX setup is very well tuned and this is the only addon that has issues.

Share this post


Link to post
Share on other sites

Hi, I want you to try current weather and not a historical file. Also, with ASE and FSX running I would like you to go to the ASE Map screen and see if you can click on the Lock to FS Location box. Please let us know.

Share this post


Link to post
Share on other sites

Sometimes the server goes down.  Try again later.  You might want to post on the Hifi forums as well.

 

Hook

Share this post


Link to post
Share on other sites
Guest
This topic is now closed to further replies.